sensor_id;sensor_type;location;lat;lon;timestamp;pressure;altitude;pressure_sealevel;temperature;humidity
66479;BME280;53294;47.912;13.526;2023-01-28T00:01:17;96483.91;;;0.59;69.87
66479;BME280;53294;47.912;13.526;2023-01-28T00:03:43;96484.44;;;0.49;70.35
66479;BME280;53294;47.912;13.526;2023-01-28T00:06:13;96484.34;;;0.56;70.20
66479;BME280;53294;47.912;13.526;2023-01-28T00:08:40;96481.22;;;0.47;70.23
66479;BME280;53294;47.912;13.526;2023-01-28T00:11:10;96483.81;;;0.35;70.93
66479;BME280;53294;47.912;13.526;2023-01-28T00:13:36;96483.28;;;0.08;71.78
66479;BME280;53294;47.912;13.526;2023-01-28T00:16:05;96485.06;;;0.14;71.73
66479;BME280;53294;47.912;13.526;2023-01-28T00:18:36;96481.63;;;0.13;71.64
66479;BME280;53294;47.912;13.526;2023-01-28T00:21:09;96476.19;;;0.08;71.89
66479;BME280;53294;47.912;13.526;2023-01-28T00:23:38;96481.63;;;0.13;71.55
66479;BME280;53294;47.912;13.526;2023-01-28T00:26:14;96476.63;;;0.24;71.24
66479;BME280;53294;47.912;13.526;2023-01-28T00:28:42;96485.13;;;0.07;71.98
66479;BME280;53294;47.912;13.526;2023-01-28T00:31:14;96479.94;;;0.19;71.50
66479;BME280;53294;47.912;13.526;2023-01-28T00:33:43;96469.28;;;0.26;71.28
66479;BME280;53294;47.912;13.526;2023-01-28T00:36:11;96476.31;;;0.32;71.13
66479;BME280;53294;47.912;13.526;2023-01-28T00:38:38;96469.78;;;0.34;71.06
66479;BME280;53294;47.912;13.526;2023-01-28T00:43:39;96473.19;;;0.53;70.28
66479;BME280;53294;47.912;13.526;2023-01-28T00:46:07;96473.59;;;0.69;69.87
66479;BME280;53294;47.912;13.526;2023-01-28T00:48:35;96477.53;;;0.78;69.41
66479;BME280;53294;47.912;13.526;2023-01-28T00:51:03;96476.47;;;0.67;69.92
66479;BME280;53294;47.912;13.526;2023-01-28T00:53:30;96477.69;;;0.53;70.33
66479;BME280;53294;47.912;13.526;2023-01-28T00:55:56;96482.00;;;0.47;70.52
66479;BME280;53294;47.912;13.526;2023-01-28T00:58:23;96483.41;;;0.50;70.33
66479;BME280;53294;47.912;13.526;2023-01-28T01:00:50;96498.50;;;0.61;70.20
66479;BME280;53294;47.912;13.526;2023-01-28T01:03:17;96491.66;;;0.72;69.76
66479;BME280;53294;47.912;13.526;2023-01-28T01:05:44;96492.81;;;0.76;69.52
66479;BME280;53294;47.912;13.526;2023-01-28T01:08:11;96491.34;;;0.80;69.27
66479;BME280;53294;47.912;13.526;2023-01-28T01:10:39;96495.16;;;0.84;68.84
66479;BME280;53294;47.912;13.526;2023-01-28T01:13:06;96485.81;;;0.70;69.50
66479;BME280;53294;47.912;13.526;2023-01-28T01:15:33;96496.16;;;0.83;68.94
66479;BME280;53294;47.912;13.526;2023-01-28T01:18:00;96492.06;;;0.87;68.88
66479;BME280;53294;47.912;13.526;2023-01-28T01:20:28;96499.69;;;0.65;69.80
66479;BME280;53294;47.912;13.526;2023-01-28T01:22:59;96495.63;;;0.32;70.75
66479;BME280;53294;47.912;13.526;2023-01-28T01:25:25;96493.25;;;0.43;70.64
66479;BME280;53294;47.912;13.526;2023-01-28T01:27:52;96499.28;;;0.50;70.43
66479;BME280;53294;47.912;13.526;2023-01-28T01:30:19;96497.00;;;0.53;70.09
66479;BME280;53294;47.912;13.526;2023-01-28T01:32:46;96491.91;;;0.52;70.30
66479;BME280;53294;47.912;13.526;2023-01-28T01:35:13;96491.84;;;0.40;70.75
66479;BME280;53294;47.912;13.526;2023-01-28T01:37:42;96505.69;;;0.42;70.34
66479;BME280;53294;47.912;13.526;2023-01-28T01:40:10;96506.75;;;0.53;69.78
66479;BME280;53294;47.912;13.526;2023-01-28T01:42:37;96502.28;;;0.53;69.62
66479;BME280;53294;47.912;13.526;2023-01-28T01:45:06;96507.91;;;0.57;69.33
66479;BME280;53294;47.912;13.526;2023-01-28T01:47:41;96507.63;;;0.65;68.87
66479;BME280;53294;47.912;13.526;2023-01-28T01:50:32;96508.53;;;0.41;69.93
66479;BME280;53294;47.912;13.526;2023-01-28T01:53:10;96508.69;;;0.27;70.54
66479;BME280;53294;47.912;13.526;2023-01-28T01:55:42;96510.53;;;-0.10;71.77
66479;BME280;53294;47.912;13.526;2023-01-28T01:58:13;96507.56;;;-0.21;72.38
66479;BME280;53294;47.912;13.526;2023-01-28T02:00:41;96509.56;;;-0.16;71.78
66479;BME280;53294;47.912;13.526;2023-01-28T02:03:09;96509.63;;;-0.23;72.25
66479;BME280;53294;47.912;13.526;2023-01-28T02:05:37;96508.47;;;-0.08;71.59
66479;BME280;53294;47.912;13.526;2023-01-28T02:08:05;96510.97;;;0.05;71.20
66479;BME280;53294;47.912;13.526;2023-01-28T02:11:06;96509.06;;;-0.06;71.93
66479;BME280;53294;47.912;13.526;2023-01-28T02:13:39;96503.47;;;-0.16;72.36
66479;BME280;53294;47.912;13.526;2023-01-28T02:16:07;96508.63;;;-0.22;72.61
66479;BME280;53294;47.912;13.526;2023-01-28T02:18:34;96501.56;;;-0.28;72.75
66479;BME280;53294;47.912;13.526;2023-01-28T02:21:18;96503.91;;;-0.38;72.96
66479;BME280;53294;47.912;13.526;2023-01-28T02:29:03;96523.31;;;-0.51;73.75
66479;BME280;53294;47.912;13.526;2023-01-28T02:34:05;96515.44;;;-0.14;71.94
66479;BME280;53294;47.912;13.526;2023-01-28T02:39:09;96510.66;;;-0.05;71.62
66479;BME280;53294;47.912;13.526;2023-01-28T02:41:43;96512.72;;;-0.07;71.73
66479;BME280;53294;47.912;13.526;2023-01-28T02:44:12;96508.66;;;-0.28;72.50
66479;BME280;53294;47.912;13.526;2023-01-28T02:46:38;96513.25;;;-0.17;72.19
66479;BME280;53294;47.912;13.526;2023-01-28T02:49:41;96512.28;;;-0.23;72.45
66479;BME280;53294;47.912;13.526;2023-01-28T02:52:21;96515.91;;;-0.42;73.18
66479;BME280;53294;47.912;13.526;2023-01-28T03:03:19;96517.88;;;-0.38;73.20
66479;BME280;53294;47.912;13.526;2023-01-28T03:05:54;96527.31;;;-0.48;73.27
66479;BME280;53294;47.912;13.526;2023-01-28T03:11:19;96525.72;;;-0.49;73.25
66479;BME280;53294;47.912;13.526;2023-01-28T03:14:05;96528.41;;;-0.31;72.42
66479;BME280;53294;47.912;13.526;2023-01-28T03:16:52;96526.47;;;-0.42;72.84
66479;BME280;53294;47.912;13.526;2023-01-28T03:19:38;96527.75;;;-0.51;73.37
66479;BME280;53294;47.912;13.526;2023-01-28T03:22:24;96528.38;;;-0.49;73.30
66479;BME280;53294;47.912;13.526;2023-01-28T03:25:13;96527.38;;;-0.55;73.37
66479;BME280;53294;47.912;13.526;2023-01-28T03:28:02;96525.28;;;-0.46;72.98
66479;BME280;53294;47.912;13.526;2023-01-28T03:33:47;96528.84;;;-0.34;72.63
66479;BME280;53294;47.912;13.526;2023-01-28T03:36:33;96532.94;;;-0.38;72.73
66479;BME280;53294;47.912;13.526;2023-01-28T03:39:21;96531.06;;;-0.31;72.61
66479;BME280;53294;47.912;13.526;2023-01-28T03:42:07;96525.59;;;-0.36;72.92
66479;BME280;53294;47.912;13.526;2023-01-28T03:44:34;96530.19;;;-0.50;72.94
66479;BME280;53294;47.912;13.526;2023-01-28T03:47:21;96534.13;;;-0.34;72.82
66479;BME280;53294;47.912;13.526;2023-01-28T03:49:51;96534.22;;;-0.47;73.27
66479;BME280;53294;47.912;13.526;2023-01-28T03:52:23;96542.91;;;-0.40;72.97
66479;BME280;53294;47.912;13.526;2023-01-28T03:54:50;96544.28;;;-0.38;72.60
66479;BME280;53294;47.912;13.526;2023-01-28T03:57:22;96543.81;;;-0.28;72.48
66479;BME280;53294;47.912;13.526;2023-01-28T03:59:49;96538.81;;;-0.17;72.01
66479;BME280;53294;47.912;13.526;2023-01-28T04:02:16;96534.38;;;-0.17;71.86
66479;BME280;53294;47.912;13.526;2023-01-28T04:04:43;96536.94;;;-0.10;71.58
66479;BME280;53294;47.912;13.526;2023-01-28T04:07:10;96542.97;;;-0.03;71.23
66479;BME280;53294;47.912;13.526;2023-01-28T04:09:37;96547.97;;;0.05;70.70
66479;BME280;53294;47.912;13.526;2023-01-28T04:12:04;96549.28;;;-0.04;70.81
66479;BME280;53294;47.912;13.526;2023-01-28T04:14:31;96547.00;;;-0.01;70.56
66479;BME280;53294;47.912;13.526;2023-01-28T04:16:58;96543.13;;;0.02;70.53
66479;BME280;53294;47.912;13.526;2023-01-28T04:19:25;96547.22;;;-0.02;70.58
66479;BME280;53294;47.912;13.526;2023-01-28T04:21:52;96550.00;;;0.03;70.42
66479;BME280;53294;47.912;13.526;2023-01-28T04:24:21;96552.50;;;-0.02;70.37
66479;BME280;53294;47.912;13.526;2023-01-28T04:26:48;96553.22;;;-0.13;70.82
66479;BME280;53294;47.912;13.526;2023-01-28T04:29:14;96552.69;;;-0.22;71.07
66479;BME280;53294;47.912;13.526;2023-01-28T04:31:41;96557.16;;;-0.23;71.04
66479;BME280;53294;47.912;13.526;2023-01-28T04:34:08;96561.69;;;-0.30;71.07
66479;BME280;53294;47.912;13.526;2023-01-28T04:36:35;96561.66;;;-0.23;71.17
66479;BME280;53294;47.912;13.526;2023-01-28T04:39:02;96563.47;;;-0.24;71.13
66479;BME280;53294;47.912;13.526;2023-01-28T04:41:28;96571.16;;;-0.22;70.91
66479;BME280;53294;47.912;13.526;2023-01-28T04:43:55;96576.72;;;-0.30;71.14
66479;BME280;53294;47.912;13.526;2023-01-28T04:46:22;96578.13;;;-0.28;71.31
66479;BME280;53294;47.912;13.526;2023-01-28T04:48:48;96584.00;;;-0.26;70.89
66479;BME280;53294;47.912;13.526;2023-01-28T04:51:15;96578.63;;;-0.12;70.47
66479;BME280;53294;47.912;13.526;2023-01-28T04:53:42;96577.00;;;-0.13;70.56
66479;BME280;53294;47.912;13.526;2023-01-28T04:56:08;96584.75;;;-0.19;70.77
66479;BME280;53294;47.912;13.526;2023-01-28T04:58:35;96584.75;;;-0.19;70.72
66479;BME280;53294;47.912;13.526;2023-01-28T05:01:02;96588.22;;;-0.43;71.37
66479;BME280;53294;47.912;13.526;2023-01-28T05:03:28;96591.00;;;-0.38;71.26
66479;BME280;53294;47.912;13.526;2023-01-28T05:05:55;96588.69;;;-0.28;70.86
66479;BME280;53294;47.912;13.526;2023-01-28T05:08:22;96589.41;;;-0.14;70.51
66479;BME280;53294;47.912;13.526;2023-01-28T05:10:48;96591.22;;;-0.14;70.44
66479;BME280;53294;47.912;13.526;2023-01-28T05:13:15;96592.34;;;-0.29;71.00
66479;BME280;53294;47.912;13.526;2023-01-28T05:15:41;96592.47;;;-0.17;70.82
66479;BME280;53294;47.912;13.526;2023-01-28T05:18:08;96597.06;;;-0.31;71.25
66479;BME280;53294;47.912;13.526;2023-01-28T05:20:35;96590.94;;;-0.06;70.55
66479;BME280;53294;47.912;13.526;2023-01-28T05:23:01;96593.59;;;-0.06;70.45
66479;BME280;53294;47.912;13.526;2023-01-28T05:25:28;96596.66;;;0.09;70.01
66479;BME280;53294;47.912;13.526;2023-01-28T05:27:55;96596.84;;;0.14;69.65
66479;BME280;53294;47.912;13.526;2023-01-28T05:30:21;96595.31;;;0.25;69.73
66479;BME280;53294;47.912;13.526;2023-01-28T05:32:53;96604.94;;;0.38;69.56
66479;BME280;53294;47.912;13.526;2023-01-28T05:35:19;96602.88;;;0.40;69.69
66479;BME280;53294;47.912;13.526;2023-01-28T05:37:46;96600.66;;;0.37;69.83
66479;BME280;53294;47.912;13.526;2023-01-28T05:40:13;96608.66;;;0.30;70.01
66479;BME280;53294;47.912;13.526;2023-01-28T05:42:41;96611.47;;;0.35;69.76
66479;BME280;53294;47.912;13.526;2023-01-28T05:45:08;96609.34;;;0.44;69.45
66479;BME280;53294;47.912;13.526;2023-01-28T05:47:35;96618.16;;;0.38;69.42
66479;BME280;53294;47.912;13.526;2023-01-28T05:50:02;96614.53;;;0.32;69.72
66479;BME280;53294;47.912;13.526;2023-01-28T05:52:28;96622.25;;;0.34;69.54
66479;BME280;53294;47.912;13.526;2023-01-28T05:54:55;96623.78;;;0.23;69.70
66479;BME280;53294;47.912;13.526;2023-01-28T05:57:21;96625.47;;;0.17;69.81
66479;BME280;53294;47.912;13.526;2023-01-28T05:59:48;96618.88;;;-0.17;70.74
66479;BME280;53294;47.912;13.526;2023-01-28T06:02:15;96636.03;;;-0.33;71.75
66479;BME280;53294;47.912;13.526;2023-01-28T06:04:41;96634.09;;;-0.44;71.77
66479;BME280;53294;47.912;13.526;2023-01-28T06:07:08;96640.19;;;-0.44;71.86
66479;BME280;53294;47.912;13.526;2023-01-28T06:09:35;96643.72;;;-0.57;72.33
66479;BME280;53294;47.912;13.526;2023-01-28T06:12:01;96647.50;;;-0.46;71.91
66479;BME280;53294;47.912;13.526;2023-01-28T06:14:28;96647.56;;;-0.52;72.00
66479;BME280;53294;47.912;13.526;2023-01-28T06:16:55;96641.25;;;-0.51;71.89
66479;BME280;53294;47.912;13.526;2023-01-28T06:19:21;96648.31;;;-0.45;71.71
66479;BME280;53294;47.912;13.526;2023-01-28T06:21:48;96645.03;;;-0.41;71.43
66479;BME280;53294;47.912;13.526;2023-01-28T06:24:14;96653.44;;;-0.25;71.02
66479;BME280;53294;47.912;13.526;2023-01-28T06:26:41;96655.81;;;-0.42;71.70
66479;BME280;53294;47.912;13.526;2023-01-28T06:29:08;96670.13;;;-0.25;71.60
66479;BME280;53294;47.912;13.526;2023-01-28T06:31:35;96670.44;;;-0.14;70.99
66479;BME280;53294;47.912;13.526;2023-01-28T06:34:01;96674.34;;;-0.17;71.14
66479;BME280;53294;47.912;13.526;2023-01-28T06:36:28;96683.47;;;-0.20;71.34
66479;BME280;53294;47.912;13.526;2023-01-28T06:38:55;96674.91;;;-0.47;72.32
66479;BME280;53294;47.912;13.526;2023-01-28T06:41:22;96678.63;;;-0.23;71.67
66479;BME280;53294;47.912;13.526;2023-01-28T06:43:49;96672.16;;;-0.27;71.42
66479;BME280;53294;47.912;13.526;2023-01-28T06:46:16;96677.84;;;-0.30;71.50
66479;BME280;53294;47.912;13.526;2023-01-28T06:48:42;96674.47;;;-0.37;72.12
66479;BME280;53294;47.912;13.526;2023-01-28T06:51:09;96682.47;;;-0.50;72.67
66479;BME280;53294;47.912;13.526;2023-01-28T06:53:36;96688.28;;;-0.74;73.75
66479;BME280;53294;47.912;13.526;2023-01-28T06:56:03;96688.63;;;-0.63;73.65
66479;BME280;53294;47.912;13.526;2023-01-28T06:58:29;96691.97;;;-0.43;72.83
66479;BME280;53294;47.912;13.526;2023-01-28T07:00:56;96690.25;;;-0.30;72.65
66479;BME280;53294;47.912;13.526;2023-01-28T07:03:22;96690.69;;;-0.02;71.60
66479;BME280;53294;47.912;13.526;2023-01-28T07:05:49;96686.50;;;0.09;71.33
66479;BME280;53294;47.912;13.526;2023-01-28T07:08:16;96686.06;;;0.12;71.28
66479;BME280;53294;47.912;13.526;2023-01-28T07:10:43;96684.34;;;0.25;70.86
66479;BME280;53294;47.912;13.526;2023-01-28T07:13:09;96681.81;;;0.37;70.77
66479;BME280;53294;47.912;13.526;2023-01-28T07:15:36;96683.97;;;0.21;71.17
66479;BME280;53294;47.912;13.526;2023-01-28T07:18:03;96687.25;;;0.16;71.30
66479;BME280;53294;47.912;13.526;2023-01-28T07:20:30;96685.59;;;0.22;70.85
66479;BME280;53294;47.912;13.526;2023-01-28T07:22:56;96684.28;;;0.31;70.61
66479;BME280;53294;47.912;13.526;2023-01-28T07:25:23;96683.34;;;0.44;70.23
66479;BME280;53294;47.912;13.526;2023-01-28T07:27:51;96683.91;;;0.53;69.89
66479;BME280;53294;47.912;13.526;2023-01-28T07:30:19;96687.56;;;0.52;70.38
66479;BME280;53294;47.912;13.526;2023-01-28T07:32:52;96686.56;;;0.46;70.52
66479;BME280;53294;47.912;13.526;2023-01-28T07:35:18;96686.91;;;0.57;70.00
66479;BME280;53294;47.912;13.526;2023-01-28T07:37:52;96685.59;;;0.66;69.90
66479;BME280;53294;47.912;13.526;2023-01-28T07:40:19;96693.19;;;0.56;70.10
66479;BME280;53294;47.912;13.526;2023-01-28T07:42:46;96690.44;;;0.69;69.78
66479;BME280;53294;47.912;13.526;2023-01-28T07:45:13;96696.75;;;0.68;69.77
66479;BME280;53294;47.912;13.526;2023-01-28T07:47:40;96702.13;;;0.80;69.64
66479;BME280;53294;47.912;13.526;2023-01-28T07:50:09;96697.78;;;0.85;69.50
66479;BME280;53294;47.912;13.526;2023-01-28T07:52:36;96700.72;;;0.96;69.05
66479;BME280;53294;47.912;13.526;2023-01-28T07:55:10;96710.06;;;0.80;69.97
66479;BME280;53294;47.912;13.526;2023-01-28T07:57:58;96718.50;;;0.70;69.70
66479;BME280;53294;47.912;13.526;2023-01-28T08:00:27;96715.25;;;0.68;70.06
66479;BME280;53294;47.912;13.526;2023-01-28T08:02:55;96720.78;;;0.85;69.74
66479;BME280;53294;47.912;13.526;2023-01-28T08:05:23;96723.66;;;0.83;69.65
66479;BME280;53294;47.912;13.526;2023-01-28T08:07:50;96730.84;;;0.95;69.24
66479;BME280;53294;47.912;13.526;2023-01-28T08:10:17;96726.88;;;1.04;69.26
66479;BME280;53294;47.912;13.526;2023-01-28T08:12:57;96736.75;;;1.15;69.38
66479;BME280;53294;47.912;13.526;2023-01-28T08:15:28;96742.75;;;1.22;68.94
66479;BME280;53294;47.912;13.526;2023-01-28T08:17:56;96741.84;;;1.29;68.96
66479;BME280;53294;47.912;13.526;2023-01-28T08:20:25;96743.41;;;1.36;68.89
66479;BME280;53294;47.912;13.526;2023-01-28T08:22:52;96736.84;;;1.39;68.59
66479;BME280;53294;47.912;13.526;2023-01-28T08:25:20;96739.19;;;1.47;68.66
66479;BME280;53294;47.912;13.526;2023-01-28T08:27:46;96741.97;;;1.52;68.58
66479;BME280;53294;47.912;13.526;2023-01-28T08:30:13;96739.03;;;1.60;68.55
66479;BME280;53294;47.912;13.526;2023-01-28T08:32:40;96740.47;;;1.75;68.12
66479;BME280;53294;47.912;13.526;2023-01-28T08:35:07;96731.03;;;1.79;67.74
66479;BME280;53294;47.912;13.526;2023-01-28T08:37:33;96735.16;;;1.75;67.94
66479;BME280;53294;47.912;13.526;2023-01-28T08:40:00;96739.00;;;1.91;67.21
66479;BME280;53294;47.912;13.526;2023-01-28T08:42:27;96737.75;;;1.93;67.31
66479;BME280;53294;47.912;13.526;2023-01-28T08:44:54;96727.41;;;2.04;67.39
66479;BME280;53294;47.912;13.526;2023-01-28T08:47:20;96733.78;;;2.14;67.27
66479;BME280;53294;47.912;13.526;2023-01-28T08:49:47;96734.00;;;2.13;67.39
66479;BME280;53294;47.912;13.526;2023-01-28T08:52:13;96734.81;;;2.13;67.33
66479;BME280;53294;47.912;13.526;2023-01-28T08:54:40;96736.44;;;2.26;67.16
66479;BME280;53294;47.912;13.526;2023-01-28T08:57:07;96746.13;;;2.32;66.68
66479;BME280;53294;47.912;13.526;2023-01-28T08:59:33;96740.81;;;2.32;66.69
66479;BME280;53294;47.912;13.526;2023-01-28T09:02:00;96743.97;;;2.41;66.45
66479;BME280;53294;47.912;13.526;2023-01-28T09:04:26;96744.03;;;2.34;66.20
66479;BME280;53294;47.912;13.526;2023-01-28T09:06:53;96743.13;;;2.41;65.65
66479;BME280;53294;47.912;13.526;2023-01-28T09:09:20;96740.81;;;2.32;66.57
66479;BME280;53294;47.912;13.526;2023-01-28T09:11:46;96745.31;;;2.44;66.17
66479;BME280;53294;47.912;13.526;2023-01-28T09:14:13;96746.38;;;2.43;66.52
66479;BME280;53294;47.912;13.526;2023-01-28T09:16:39;96754.69;;;2.58;66.35
66479;BME280;53294;47.912;13.526;2023-01-28T09:19:06;96752.84;;;2.59;65.60
66479;BME280;53294;47.912;13.526;2023-01-28T09:21:33;96761.25;;;2.56;65.78
66479;BME280;53294;47.912;13.526;2023-01-28T09:23:59;96764.84;;;2.49;65.98
66479;BME280;53294;47.912;13.526;2023-01-28T09:26:26;96760.47;;;2.55;66.00
66479;BME280;53294;47.912;13.526;2023-01-28T09:28:53;96758.50;;;2.50;65.71
66479;BME280;53294;47.912;13.526;2023-01-28T09:31:19;96763.88;;;2.44;65.94
66479;BME280;53294;47.912;13.526;2023-01-28T09:33:46;96769.31;;;2.61;65.72
66479;BME280;53294;47.912;13.526;2023-01-28T09:36:13;96755.03;;;2.85;65.26
66479;BME280;53294;47.912;13.526;2023-01-28T09:38:40;96768.78;;;2.71;65.09
66479;BME280;53294;47.912;13.526;2023-01-28T09:41:27;96769.44;;;2.78;64.99
66479;BME280;53294;47.912;13.526;2023-01-28T09:44:05;96762.19;;;2.73;65.22
66479;BME280;53294;47.912;13.526;2023-01-28T09:46:34;96772.56;;;2.86;64.76
66479;BME280;53294;47.912;13.526;2023-01-28T09:49:13;96773.38;;;2.99;64.70
66479;BME280;53294;47.912;13.526;2023-01-28T09:51:44;96765.19;;;3.00;64.31
66479;BME280;53294;47.912;13.526;2023-01-28T09:54:29;96758.84;;;2.78;63.50
66479;BME280;53294;47.912;13.526;2023-01-28T09:57:09;96760.09;;;2.87;63.94
66479;BME280;53294;47.912;13.526;2023-01-28T09:59:37;96754.22;;;2.85;64.21
66479;BME280;53294;47.912;13.526;2023-01-28T10:10:32;96741.72;;;3.21;63.98
66479;BME280;53294;47.912;13.526;2023-01-28T10:13:18;96740.38;;;3.07;63.05
66479;BME280;53294;47.912;13.526;2023-01-28T10:16:01;96739.28;;;3.31;63.51
66479;BME280;53294;47.912;13.526;2023-01-28T10:18:35;96740.31;;;3.30;63.23
66479;BME280;53294;47.912;13.526;2023-01-28T10:21:22;96741.22;;;3.36;62.80
66479;BME280;53294;47.912;13.526;2023-01-28T10:24:18;96734.38;;;3.40;62.94
66479;BME280;53294;47.912;13.526;2023-01-28T10:26:51;96729.75;;;3.47;62.90
66479;BME280;53294;47.912;13.526;2023-01-28T10:29:21;96724.28;;;3.54;62.68
66479;BME280;53294;47.912;13.526;2023-01-28T10:32:16;96739.38;;;3.36;62.52
66479;BME280;53294;47.912;13.526;2023-01-28T10:34:40;96735.94;;;3.24;62.83
66479;BME280;53294;47.912;13.526;2023-01-28T10:37:11;96733.25;;;3.36;62.82
66479;BME280;53294;47.912;13.526;2023-01-28T10:39:39;96730.56;;;3.48;62.42
66479;BME280;53294;47.912;13.526;2023-01-28T10:42:24;96734.13;;;3.53;60.83
66479;BME280;53294;47.912;13.526;2023-01-28T10:44:58;96736.16;;;3.34;61.31
66479;BME280;53294;47.912;13.526;2023-01-28T10:47:31;96729.94;;;3.17;60.79
66479;BME280;53294;47.912;13.526;2023-01-28T10:50:01;96734.66;;;3.27;62.23
66479;BME280;53294;47.912;13.526;2023-01-28T10:52:30;96734.53;;;3.33;60.93
66479;BME280;53294;47.912;13.526;2023-01-28T10:55:01;96736.41;;;3.21;61.81
66479;BME280;53294;47.912;13.526;2023-01-28T10:57:32;96743.34;;;3.22;62.15
66479;BME280;53294;47.912;13.526;2023-01-28T11:00:33;96739.13;;;3.38;61.42
66479;BME280;53294;47.912;13.526;2023-01-28T11:02:58;96742.44;;;2.81;61.81
66479;BME280;53294;47.912;13.526;2023-01-28T11:05:29;96736.91;;;2.94;61.43
66479;BME280;53294;47.912;13.526;2023-01-28T11:08:14;96743.63;;;2.85;60.90
66479;BME280;53294;47.912;13.526;2023-01-28T11:10:43;96741.06;;;2.90;61.37
66479;BME280;53294;47.912;13.526;2023-01-28T11:13:27;96736.69;;;2.60;61.54
66479;BME280;53294;47.912;13.526;2023-01-28T11:16:15;96745.22;;;2.62;61.51
66479;BME280;53294;47.912;13.526;2023-01-28T11:21:20;96747.28;;;2.37;62.12
66479;BME280;53294;47.912;13.526;2023-01-28T11:23:54;96747.38;;;2.30;62.95
66479;BME280;53294;47.912;13.526;2023-01-28T11:26:36;96739.22;;;2.43;61.97
66479;BME280;53294;47.912;13.526;2023-01-28T11:29:04;96743.94;;;2.29;63.01
66479;BME280;53294;47.912;13.526;2023-01-28T11:31:42;96745.31;;;2.44;62.72
66479;BME280;53294;47.912;13.526;2023-01-28T11:34:16;96755.25;;;2.37;63.11
66479;BME280;53294;47.912;13.526;2023-01-28T11:36:52;96742.66;;;2.44;63.19
66479;BME280;53294;47.912;13.526;2023-01-28T11:39:24;96749.84;;;2.43;63.35
66479;BME280;53294;47.912;13.526;2023-01-28T11:42:02;96746.13;;;2.32;63.67
66479;BME280;53294;47.912;13.526;2023-01-28T11:44:36;96751.09;;;2.29;63.00
66479;BME280;53294;47.912;13.526;2023-01-28T11:47:18;96751.78;;;2.24;62.38
66479;BME280;53294;47.912;13.526;2023-01-28T12:20:54;96754.44;;;2.24;63.79
66479;BME280;53294;47.912;13.526;2023-01-28T12:26:10;96766.91;;;2.59;62.99
66479;BME280;53294;47.912;13.526;2023-01-28T12:40:04;96763.56;;;2.52;63.68
66479;BME280;53294;47.912;13.526;2023-01-28T12:42:52;96767.38;;;2.56;63.35
66479;BME280;53294;47.912;13.526;2023-01-28T12:47:55;96766.22;;;2.52;62.99
66479;BME280;53294;47.912;13.526;2023-01-28T12:50:30;96767.50;;;2.73;63.42
66479;BME280;53294;47.912;13.526;2023-01-28T12:53:32;96771.53;;;2.99;62.67
66479;BME280;53294;47.912;13.526;2023-01-28T12:56:16;96770.25;;;3.02;62.73
66479;BME280;53294;47.912;13.526;2023-01-28T12:58:54;96763.56;;;3.11;63.17
66479;BME280;53294;47.912;13.526;2023-01-28T13:01:28;96765.31;;;2.82;63.44
66479;BME280;53294;47.912;13.526;2023-01-28T13:06:58;96766.31;;;3.04;63.22
66479;BME280;53294;47.912;13.526;2023-01-28T13:09:27;96767.25;;;3.10;62.56
66479;BME280;53294;47.912;13.526;2023-01-28T13:11:56;96773.72;;;3.02;63.17
66479;BME280;53294;47.912;13.526;2023-01-28T13:14:28;96769.59;;;2.83;63.51
66479;BME280;53294;47.912;13.526;2023-01-28T13:17:11;96775.66;;;3.07;63.19
66479;BME280;53294;47.912;13.526;2023-01-28T13:19:39;96772.41;;;3.17;63.09
66479;BME280;53294;47.912;13.526;2023-01-28T13:22:32;96775.44;;;3.20;63.18
66479;BME280;53294;47.912;13.526;2023-01-28T13:25:16;96772.16;;;3.42;63.04
66479;BME280;53294;47.912;13.526;2023-01-28T13:27:57;96777.25;;;3.44;62.70
66479;BME280;53294;47.912;13.526;2023-01-28T13:30:32;96784.88;;;3.28;62.94
66479;BME280;53294;47.912;13.526;2023-01-28T13:33:02;96785.34;;;3.25;63.27
66479;BME280;53294;47.912;13.526;2023-01-28T13:35:32;96779.59;;;3.28;62.92
66479;BME280;53294;47.912;13.526;2023-01-28T13:38:16;96781.41;;;3.39;63.09
66479;BME280;53294;47.912;13.526;2023-01-28T13:40:53;96794.44;;;3.29;63.32
66479;BME280;53294;47.912;13.526;2023-01-28T13:48:45;96786.63;;;3.34;62.55
66479;BME280;53294;47.912;13.526;2023-01-28T13:51:23;96789.13;;;3.29;62.75
66479;BME280;53294;47.912;13.526;2023-01-28T13:54:04;96794.78;;;3.45;62.37
66479;BME280;53294;47.912;13.526;2023-01-28T13:57:02;96793.97;;;3.44;62.23
66479;BME280;53294;47.912;13.526;2023-01-28T14:01:58;96797.81;;;3.36;62.76
66479;BME280;53294;47.912;13.526;2023-01-28T14:08:29;96802.03;;;3.61;62.02
66479;BME280;53294;47.912;13.526;2023-01-28T14:18:41;96819.50;;;3.33;62.77
66479;BME280;53294;47.912;13.526;2023-01-28T14:21:20;96812.13;;;3.12;63.41
66479;BME280;53294;47.912;13.526;2023-01-28T14:23:52;96806.38;;;3.27;62.95
66479;BME280;53294;47.912;13.526;2023-01-28T14:31:42;96825.28;;;3.30;62.80
66479;BME280;53294;47.912;13.526;2023-01-28T14:36:48;96831.84;;;3.28;62.89
66479;BME280;53294;47.912;13.526;2023-01-28T14:39:25;96830.94;;;3.34;62.46
66479;BME280;53294;47.912;13.526;2023-01-28T14:41:55;96835.81;;;3.25;63.04
66479;BME280;53294;47.912;13.526;2023-01-28T14:44:30;96829.09;;;3.34;62.89
66479;BME280;53294;47.912;13.526;2023-01-28T14:47:14;96829.06;;;3.46;62.50
66479;BME280;53294;47.912;13.526;2023-01-28T14:58:07;96833.91;;;3.61;62.22
66479;BME280;53294;47.912;13.526;2023-01-28T15:00:37;96832.50;;;3.58;62.34
66479;BME280;53294;47.912;13.526;2023-01-28T15:03:16;96832.66;;;3.52;62.60
66479;BME280;53294;47.912;13.526;2023-01-28T15:06:13;96835.69;;;3.32;62.19
66479;BME280;53294;47.912;13.526;2023-01-28T15:08:40;96839.34;;;2.72;63.82
66479;BME280;53294;47.912;13.526;2023-01-28T15:11:09;96839.16;;;2.85;63.66
66479;BME280;53294;47.912;13.526;2023-01-28T15:13:48;96845.28;;;2.97;63.14
66479;BME280;53294;47.912;13.526;2023-01-28T15:16:19;96845.25;;;2.74;63.77
66479;BME280;53294;47.912;13.526;2023-01-28T15:18:47;96852.84;;;2.16;65.42
66479;BME280;53294;47.912;13.526;2023-01-28T15:21:23;96854.97;;;2.07;65.41
66479;BME280;53294;47.912;13.526;2023-01-28T15:23:53;96856.06;;;2.18;65.30